Time;durP1;ratioP1;P1;durP2;ratioP2;P2;SDS_P1;SDS_P2;PMS_P1;PMS_P2;Temp;Humidity;BMP_temperature;BMP_pressure;BME280_temperature;BME280_humidity;BME280_pressure;Samples;Min_cycle;Max_cycle;Signal;HPM_P1;HPM_P2
2021/11/04 00:01:51;;;;;;;10.30;9.20;;;;;;;8.25;76.01;95098.53;5096627;28;20044;-74
2021/11/04 00:04:18;;;;;;;10.40;8.30;;;;;;;8.29;75.84;95087.72;5095629;28;20052;-74
2021/11/04 00:06:46;;;;;;;10.60;9.10;;;;;;;8.30;75.76;95086.75;5114296;28;20040;-74
2021/11/04 00:09:14;;;;;;;12.15;7.50;;;;;;;8.33;76.28;95081.94;5110032;28;20523;-74
2021/11/04 00:11:42;;;;;;;10.60;8.85;;;;;;;8.35;75.68;95073.91;5095653;28;20059;-74
2021/11/04 00:14:09;;;;;;;13.23;11.07;;;;;;;8.34;75.80;95085.34;5095372;28;20134;-74
2021/11/04 00:16:37;;;;;;;11.10;9.75;;;;;;;8.32;75.79;95082.13;5094852;28;20044;-73
2021/11/04 00:19:05;;;;;;;10.57;9.48;;;;;;;8.26;75.57;95070.75;5094907;28;20536;-74
2021/11/04 00:21:32;;;;;;;12.27;10.13;;;;;;;8.19;76.17;95060.38;5095187;28;20040;-74
2021/11/04 00:24:00;;;;;;;9.95;8.82;;;;;;;8.16;76.30;95047.81;5095118;28;20052;-74
2021/11/04 00:26:29;;;;;;;9.82;8.60;;;;;;;8.17;76.57;95046.00;5095189;28;20059;-74
2021/11/04 00:28:57;;;;;;;8.60;7.80;;;;;;;8.19;76.49;95059.59;5094579;28;20059;-74
2021/11/04 00:31:24;;;;;;;9.48;8.57;;;;;;;8.22;76.47;95060.00;5095007;28;20413;-74
2021/11/04 00:33:52;;;;;;;9.18;8.18;;;;;;;8.25;76.31;95056.97;5095366;28;20055;-74
2021/11/04 00:36:20;;;;;;;9.82;8.32;;;;;;;8.29;76.69;95051.34;5094905;28;20094;-74
2021/11/04 00:38:48;;;;;;;10.95;8.82;;;;;;;8.32;77.00;95048.38;5094708;28;20052;-74
2021/11/04 00:41:17;;;;;;;9.25;8.20;;;;;;;8.33;76.63;95040.38;5101471;28;20048;-73
2021/11/04 00:43:47;;;;;;;10.55;9.45;;;;;;;8.35;75.98;95037.53;5095260;28;20433;-75
2021/11/04 00:46:15;;;;;;;9.40;8.40;;;;;;;8.36;76.58;95028.75;5094394;28;20485;-74
2021/11/04 00:48:42;;;;;;;9.43;8.05;;;;;;;8.37;76.54;95030.34;5094289;28;20555;-74
2021/11/04 00:51:10;;;;;;;10.02;8.52;;;;;;;8.40;76.32;95048.13;5094266;28;20494;-75
2021/11/04 00:53:37;;;;;;;10.75;9.65;;;;;;;8.39;76.18;95049.13;5094241;28;20059;-75
2021/11/04 00:56:05;;;;;;;9.93;8.93;;;;;;;8.42;76.77;95064.34;5094272;28;20051;-75
2021/11/04 00:58:33;;;;;;;11.10;9.18;;;;;;;8.42;75.92;95069.56;5094391;28;20104;-75
2021/11/04 01:01:02;;;;;;;9.88;8.90;;;;;;;8.38;76.23;95083.91;5094416;28;20052;-75
2021/11/04 01:03:32;;;;;;;9.82;8.82;;;;;;;8.33;76.18;95094.94;5094590;28;20060;-74
2021/11/04 01:05:59;;;;;;;12.15;9.95;;;;;;;8.32;76.36;95095.91;5094604;28;20055;-74
2021/11/04 01:08:27;;;;;;;11.18;9.18;;;;;;;8.32;76.50;95100.31;5096171;28;20048;-73
2021/11/04 01:10:54;;;;;;;11.80;9.23;;;;;;;8.34;76.59;95098.31;5118146;22;20052;-73
2021/11/04 01:13:23;;;;;;;11.27;9.15;;;;;;;8.35;76.49;95092.09;5114428;28;20055;-76
2021/11/04 01:15:50;;;;;;;10.98;9.18;;;;;;;8.36;76.47;95093.72;5114297;28;20048;-76
2021/11/04 01:18:19;;;;;;;12.43;10.05;;;;;;;8.36;76.77;95097.09;5114148;28;20054;-75
2021/11/04 01:20:47;;;;;;;10.43;9.15;;;;;;;8.35;76.64;95095.53;5113942;28;20047;-76
2021/11/04 01:23:14;;;;;;;11.90;9.73;;;;;;;8.36;76.65;95094.50;5113752;28;20615;-76
2021/11/04 01:25:42;;;;;;;10.98;9.88;;;;;;;8.38;76.88;95087.31;5114091;28;20147;-75
2021/11/04 01:28:10;;;;;;;9.43;8.45;;;;;;;8.40;76.62;95074.13;5113913;28;20058;-76
2021/11/04 01:30:38;;;;;;;10.20;9.13;;;;;;;8.40;76.60;95080.16;5113669;28;20059;-75
2021/11/04 01:33:06;;;;;;;10.70;8.95;;;;;;;8.40;76.67;95063.72;5113844;28;20416;-76
2021/11/04 01:35:36;;;;;;;9.73;8.73;;;;;;;8.42;76.91;95059.16;5113676;28;20437;-76
2021/11/04 01:38:06;;;;;;;10.80;8.90;;;;;;;8.43;76.57;95061.53;5113792;28;20043;-76
2021/11/04 01:40:34;;;;;;;9.43;8.25;;;;;;;8.45;76.78;95063.94;5113597;28;20051;-75
2021/11/04 01:43:02;;;;;;;9.57;8.55;;;;;;;8.44;76.26;95059.75;5113703;28;20051;-76
2021/11/04 01:45:31;;;;;;;10.70;9.10;;;;;;;8.43;76.26;95071.91;5113878;28;20051;-76
2021/11/04 01:48:00;;;;;;;11.15;8.70;;;;;;;8.43;76.25;95061.53;5113641;28;20051;-75
2021/11/04 01:50:28;;;;;;;9.70;8.75;;;;;;;8.43;76.59;95063.34;5113398;28;20056;-76
2021/11/04 01:52:57;;;;;;;9.75;8.75;;;;;;;8.44;76.32;95067.53;5113284;28;20496;-76
2021/11/04 01:55:27;;;;;;;10.00;8.55;;;;;;;8.44;76.32;95064.94;5113789;28;20104;-76
2021/11/04 01:57:56;;;;;;;9.52;8.32;;;;;;;8.45;76.52;95069.13;5113402;28;20043;-75
2021/11/04 02:00:26;;;;;;;9.68;8.45;;;;;;;8.44;76.24;95062.34;5113305;28;20056;-76
2021/11/04 02:03:00;;;;;;;11.65;9.90;;;;;;;8.39;75.77;95059.53;5112929;28;20048;-76
2021/11/04 02:05:36;;;;;;;9.77;8.40;;;;;;;8.38;76.50;95063.94;5113292;28;20425;-76
2021/11/04 02:08:09;;;;;;;10.25;9.02;;;;;;;8.41;76.63;95060.94;5112767;28;20047;-76
2021/11/04 02:10:42;;;;;;;10.02;9.02;;;;;;;8.40;75.93;95066.34;5112787;28;20054;-76
2021/11/04 02:13:15;;;;;;;10.05;8.68;;;;;;;8.38;75.92;95068.34;5113041;28;20073;-76
2021/11/04 02:15:44;;;;;;;9.43;8.48;;;;;;;8.39;76.83;95069.91;5113263;28;20047;-76
2021/11/04 02:18:14;;;;;;;9.63;8.55;;;;;;;8.40;76.41;95076.72;5112959;28;20059;-76
2021/11/04 02:20:52;;;;;;;9.38;8.40;;;;;;;8.41;76.98;95078.34;5112489;28;20500;-76
2021/11/04 02:23:29;;;;;;;9.80;8.73;;;;;;;8.40;75.91;95082.75;5112738;28;20048;-75
2021/11/04 02:26:00;;;;;;;10.00;8.73;;;;;;;8.40;76.31;95087.13;5112991;28;20058;-75
2021/11/04 02:28:28;;;;;;;9.88;8.88;;;;;;;8.39;76.32;95095.91;5112879;28;20048;-75
2021/11/04 02:30:56;;;;;;;10.25;8.20;;;;;;;8.41;76.97;95093.91;5112793;28;20099;-75
2021/11/04 02:33:24;;;;;;;9.50;8.50;;;;;;;8.42;76.63;95090.34;5112932;28;20048;-75
2021/11/04 02:35:53;;;;;;;9.20;8.32;;;;;;;8.44;76.73;95090.94;5112653;28;20424;-75
2021/11/04 02:38:24;;;;;;;10.07;8.77;;;;;;;8.45;76.86;95085.50;5112289;28;20055;-76
2021/11/04 02:40:53;;;;;;;10.35;8.73;;;;;;;8.47;76.63;95090.50;5112730;28;20052;-76
2021/11/04 02:43:22;;;;;;;9.50;8.50;;;;;;;8.47;76.42;95090.50;5112596;28;20048;-76
2021/11/04 02:45:50;;;;;;;10.27;8.68;;;;;;;8.45;76.82;95090.72;5112657;28;20047;-76
2021/11/04 02:48:18;;;;;;;9.07;7.28;;;;;;;8.47;76.89;95087.91;5112449;28;20048;-74
2021/11/04 02:50:46;;;;;;;8.98;8.07;;;;;;;8.47;76.66;95093.09;5112263;28;20078;-76
2021/11/04 02:53:15;;;;;;;8.88;7.88;;;;;;;8.46;76.56;95091.50;5112623;28;20058;-75
2021/11/04 02:55:43;;;;;;;8.35;7.45;;;;;;;8.43;76.36;95086.72;5112471;28;20051;-76
2021/11/04 02:58:12;;;;;;;8.57;7.53;;;;;;;8.44;76.54;95093.53;5112302;28;20459;-76
2021/11/04 03:00:45;;;;;;;6.78;6.07;;;;;;;8.45;76.38;95095.13;5112116;28;20047;-76
2021/11/04 03:03:12;;;;;;;9.10;6.57;;;;;;;8.43;76.20;95091.91;5112252;28;20044;-76
2021/11/04 03:05:40;;;;;;;7.75;6.55;;;;;;;8.42;75.88;95091.13;5122424;28;20060;-74
2021/11/04 03:08:08;;;;;;;8.43;6.55;;;;;;;8.40;75.53;95092.31;5132342;28;20052;-76
2021/11/04 03:10:35;;;;;;;8.95;6.65;;;;;;;8.39;75.93;95093.28;5129001;28;20420;-75
2021/11/04 03:13:03;;;;;;;6.78;6.07;;;;;;;8.39;76.05;95095.91;5114248;28;20051;-75
2021/11/04 03:15:36;;;;;;;7.93;6.60;;;;;;;8.39;75.99;95090.69;5113899;28;20056;-75
2021/11/04 03:18:05;;;;;;;7.28;6.57;;;;;;;8.37;76.16;95092.69;5113218;28;20458;-76
2021/11/04 03:20:34;;;;;;;11.93;6.80;;;;;;;8.37;76.09;95082.31;5113751;28;20051;-72
2021/11/04 03:23:04;;;;;;;10.18;6.68;;;;;;;8.37;76.24;95082.31;5116786;28;20040;-75
2021/11/04 03:25:32;;;;;;;9.55;6.97;;;;;;;8.37;75.97;95071.91;5116394;28;20073;-75
2021/11/04 03:28:01;;;;;;;7.75;6.88;;;;;;;8.38;75.79;95073.53;5116360;28;20047;-76
2021/11/04 03:30:34;;;;;;;9.75;7.00;;;;;;;8.36;76.15;95065.94;5116051;28;20044;-74
2021/11/04 03:33:03;;;;;;;10.07;7.20;;;;;;;8.34;75.83;95059.34;5116486;28;20516;-76
2021/11/04 03:35:34;;;;;;;9.23;7.60;;;;;;;8.32;75.73;95058.75;5116431;28;20056;-74
2021/11/04 03:38:05;;;;;;;8.15;7.28;;;;;;;8.31;75.88;95057.16;5116429;28;20051;-76
2021/11/04 03:40:33;;;;;;;9.20;7.90;;;;;;;8.28;75.62;95063.56;5115765;28;20047;-75
2021/11/04 03:43:02;;;;;;;11.38;8.73;;;;;;;8.23;76.29;95061.56;5115935;28;20428;-76
2021/11/04 03:45:30;;;;;;;9.95;8.90;;;;;;;8.20;76.38;95058.59;5116239;28;20047;-75
2021/11/04 03:47:59;;;;;;;10.90;8.95;;;;;;;8.18;76.09;95058.81;5115942;28;20451;-76
2021/11/04 03:50:27;;;;;;;9.00;7.95;;;;;;;8.19;76.61;95064.78;5115509;28;20074;-76
2021/11/04 03:52:56;;;;;;;12.65;10.68;;;;;;;8.19;76.80;95065.56;5115710;28;20059;-74
2021/11/04 03:55:25;;;;;;;13.27;9.20;;;;;;;8.18;76.61;95061.41;5115494;28;20043;-75
2021/11/04 03:57:54;;;;;;;13.27;9.35;;;;;;;8.18;76.69;95064.00;5115927;28;20051;-75
2021/11/04 04:00:22;;;;;;;11.88;8.70;;;;;;;8.16;76.59;95066.00;5115544;28;20047;-75
2021/11/04 04:02:51;;;;;;;12.35;8.30;;;;;;;8.15;76.84;95061.78;5115624;28;20050;-75
2021/11/04 04:05:27;;;;;;;9.30;8.40;;;;;;;8.16;77.11;95060.81;5115554;28;20051;-75
2021/11/04 04:07:56;;;;;;;9.23;8.25;;;;;;;8.15;76.62;95073.97;5115634;28;20047;-75
2021/11/04 04:10:24;;;;;;;11.02;8.90;;;;;;;8.13;77.22;95071.56;5115267;28;20050;-75
2021/11/04 04:12:52;;;;;;;8.70;7.70;;;;;;;8.13;76.88;95084.56;5115094;28;20051;-76
2021/11/04 04:15:20;;;;;;;10.73;7.65;;;;;;;8.12;76.83;95089.97;5115528;28;20063;-74
2021/11/04 04:17:47;;;;;;;7.40;6.70;;;;;;;8.13;76.77;95094.97;5115404;28;20059;-75
2021/11/04 04:20:15;;;;;;;5.25;4.75;;;;;;;8.06;76.18;95088.97;5114822;28;20048;-75
2021/11/04 04:22:43;;;;;;;4.65;4.10;;;;;;;7.99;75.73;95086.41;5115265;28;20059;-75
2021/11/04 04:25:11;;;;;;;4.15;3.75;;;;;;;7.91;76.12;95098.78;5115099;28;20052;-75
2021/11/04 04:27:39;;;;;;;2.60;2.40;;;;;;;7.82;75.47;95087.81;5115234;28;20043;-76
2021/11/04 04:30:07;;;;;;;6.95;3.00;;;;;;;7.78;76.44;95090.03;5115178;28;20097;-75
2021/11/04 04:32:35;;;;;;;3.22;2.20;;;;;;;7.73;76.56;95092.41;5114847;28;20077;-76
2021/11/04 04:35:03;;;;;;;2.50;2.30;;;;;;;7.68;76.01;95094.84;5115080;28;20148;-75
2021/11/04 04:37:31;;;;;;;1.63;1.52;;;;;;;7.64;76.18;95093.63;5116999;28;20424;-74
2021/11/04 04:39:58;;;;;;;2.00;1.77;;;;;;;7.64;76.25;95099.63;5122688;28;20060;-74
2021/11/04 04:42:27;;;;;;;1.52;1.42;;;;;;;7.61;75.59;95109.59;5124165;28;20432;-74
2021/11/04 04:44:54;;;;;;;2.03;1.50;;;;;;;7.57;76.04;95109.19;5120210;28;20043;-75
2021/11/04 04:47:23;;;;;;;1.77;1.67;;;;;;;7.52;75.10;95115.97;5114894;28;20047;-74
2021/11/04 04:49:50;;;;;;;1.98;1.80;;;;;;;7.46;75.26;95117.59;5114731;28;20047;-76
2021/11/04 04:52:17;;;;;;;2.40;1.70;;;;;;;7.41;75.26;95127.72;5114802;28;20047;-75
2021/11/04 04:54:45;;;;;;;1.90;1.80;;;;;;;7.35;74.76;95131.94;5114767;28;20413;-76
2021/11/04 04:57:13;;;;;;;2.65;1.80;;;;;;;7.30;74.41;95133.50;5114697;28;20047;-75
2021/11/04 04:59:41;;;;;;;2.65;2.20;;;;;;;7.25;75.37;95143.69;5114233;28;20052;-75
2021/11/04 05:02:09;;;;;;;2.60;2.40;;;;;;;7.24;74.73;95150.66;5114722;28;20044;-75
2021/11/04 05:04:36;;;;;;;6.68;3.00;;;;;;;7.21;75.19;95151.03;5114649;28;20060;-75
2021/11/04 05:07:04;;;;;;;2.40;2.20;;;;;;;7.21;75.29;95156.22;5114584;28;20055;-75
2021/11/04 05:09:31;;;;;;;2.55;2.35;;;;;;;7.23;75.37;95169.81;5114096;28;20047;-76
2021/11/04 05:11:59;;;;;;;2.42;2.22;;;;;;;7.23;74.71;95175.78;5114132;28;20058;-75
2021/11/04 05:14:26;;;;;;;2.50;2.30;;;;;;;7.22;74.33;95178.59;5132147;28;20039;-74
2021/11/04 05:16:56;;;;;;;3.22;2.72;;;;;;;7.19;74.93;95179.78;5125140;28;20402;-75
2021/11/04 05:19:24;;;;;;;3.03;2.50;;;;;;;7.16;74.58;95177.56;5123777;28;20048;-75
2021/11/04 05:21:51;;;;;;;4.15;2.70;;;;;;;7.12;74.32;95178.94;5136448;28;20052;-74
2021/11/04 05:24:19;;;;;;;3.55;2.20;;;;;;;7.09;74.16;95188.94;5137591;28;20051;-73
2021/11/04 05:26:47;;;;;;;3.20;2.40;;;;;;;7.07;74.07;95181.34;5124830;28;20479;-74
2021/11/04 05:29:15;;;;;;;2.80;2.58;;;;;;;7.08;74.93;95184.72;5114403;28;20044;-74
2021/11/04 05:31:43;;;;;;;2.00;1.90;;;;;;;7.08;74.02;95193.28;5114385;28;20402;-75
2021/11/04 05:34:12;;;;;;;2.47;2.28;;;;;;;7.05;73.71;95201.47;5114669;28;20048;-74
2021/11/04 05:36:39;;;;;;;2.53;2.25;;;;;;;7.02;74.03;95194.09;5114245;28;20051;-75
2021/11/04 05:39:07;;;;;;;2.88;2.42;;;;;;;7.01;74.59;95206.22;5113753;28;20043;-75
2021/11/04 05:41:34;;;;;;;2.40;2.20;;;;;;;7.03;74.63;95215.63;5118781;28;20039;-74
2021/11/04 05:44:02;;;;;;;2.50;2.30;;;;;;;7.05;74.74;95216.25;5134749;28;20055;-74
2021/11/04 05:46:29;;;;;;;2.53;2.20;;;;;;;7.08;74.71;95228.81;5136361;28;20051;-74
2021/11/04 05:48:57;;;;;;;2.65;2.45;;;;;;;7.10;74.39;95237.19;5136033;28;20047;-74
2021/11/04 05:51:26;;;;;;;3.08;2.63;;;;;;;7.08;74.81;95234.00;5128163;28;20052;-74
2021/11/04 05:53:53;;;;;;;47.90;26.52;;;;;;;7.05;74.46;95239.56;5113637;28;20059;-75
2021/11/04 05:56:20;;;;;;;9.23;5.20;;;;;;;7.02;74.61;95245.94;5114233;28;20137;-75
2021/11/04 05:58:48;;;;;;;3.05;2.60;;;;;;;6.96;73.50;95247.50;5113603;28;20059;-76
2021/11/04 06:01:15;;;;;;;2.15;1.95;;;;;;;6.90;73.61;95242.28;5114047;28;20059;-76
2021/11/04 06:03:43;;;;;;;2.83;2.03;;;;;;;6.82;73.60;95248.41;5114064;28;20075;-76
2021/11/04 06:06:10;;;;;;;3.05;2.20;;;;;;;6.78;74.40;95247.22;5113599;28;20044;-76
2021/11/04 06:08:39;;;;;;;4.22;2.40;;;;;;;6.77;75.25;95254.19;5113486;28;20043;-75
2021/11/04 06:11:06;;;;;;;1.88;1.77;;;;;;;6.77;74.61;95256.75;5113452;28;20101;-75
2021/11/04 06:13:34;;;;;;;2.28;2.08;;;;;;;6.77;74.68;95264.53;5113409;28;20066;-76
2021/11/04 06:16:01;;;;;;;4.30;2.25;;;;;;;6.76;73.93;95267.34;5113726;28;20505;-75
2021/11/04 06:18:29;;;;;;;2.08;1.88;;;;;;;6.74;74.18;95274.50;5113609;28;20063;-76
2021/11/04 06:20:56;;;;;;;3.83;2.67;;;;;;;6.77;74.32;95274.13;5114060;28;20047;-75
2021/11/04 06:23:24;;;;;;;2.53;2.22;;;;;;;6.74;73.78;95270.13;5113748;28;20048;-75
2021/11/04 06:25:53;;;;;;;2.47;2.10;;;;;;;6.69;73.84;95282.03;5113835;28;20044;-75
2021/11/04 06:28:20;;;;;;;3.10;2.42;;;;;;;6.70;74.72;95278.47;5113465;28;20054;-75
2021/11/04 06:30:47;;;;;;;8.23;4.57;;;;;;;6.72;75.63;95286.84;5113346;28;20048;-75
2021/11/04 06:33:15;;;;;;;3.65;3.35;;;;;;;6.71;73.91;95288.66;5113492;28;20043;-75
2021/11/04 06:35:42;;;;;;;3.92;2.97;;;;;;;6.71;74.48;95298.19;5113773;28;20054;-75
2021/11/04 06:38:10;;;;;;;4.00;3.55;;;;;;;6.68;74.01;95289.00;5113958;28;20054;-75
2021/11/04 06:40:38;;;;;;;5.50;4.75;;;;;;;6.71;74.60;95290.41;5113310;28;20043;-75
2021/11/04 06:43:06;;;;;;;8.25;6.18;;;;;;;6.76;74.98;95293.25;5114021;28;20081;-75
2021/11/04 06:45:36;;;;;;;7.35;5.85;;;;;;;6.78;74.45;95302.44;5133068;28;20455;-74
2021/11/04 06:48:08;;;;;;;6.38;5.40;;;;;;;6.79;74.26;95298.84;5132273;28;20040;-74
2021/11/04 06:50:40;;;;;;;5.70;3.77;;;;;;;6.83;74.48;95304.47;5118882;28;20047;-75
2021/11/04 06:53:09;;;;;;;4.27;2.97;;;;;;;6.85;74.66;95312.06;5113982;28;20475;-75
2021/11/04 06:55:40;;;;;;;3.35;3.05;;;;;;;6.86;75.11;95314.44;5113547;28;20272;-76
2021/11/04 06:58:14;;;;;;;2.40;2.20;;;;;;;6.88;74.52;95311.66;5113315;28;20043;-75
2021/11/04 07:00:45;;;;;;;2.78;2.40;;;;;;;6.86;73.52;95318.81;5113354;28;20051;-75
2021/11/04 07:03:24;;;;;;;3.00;2.67;;;;;;;6.84;74.56;95324.19;5113714;28;20055;-75
2021/11/04 07:05:56;;;;;;;2.75;2.47;;;;;;;6.86;73.97;95321.41;5113462;28;20074;-75
2021/11/04 07:08:25;;;;;;;4.22;2.70;;;;;;;6.86;74.52;95327.41;5113253;28;20055;-74
2021/11/04 07:13:25;;;;;;;3.13;2.47;;;;;;;6.84;74.37;95342.34;5035537;28;20061;-77
2021/11/04 07:15:55;;;;;;;2.28;2.15;;;;;;;6.86;74.86;95344.75;5038854;28;20061;-75
2021/11/04 07:18:24;;;;;;;2.42;2.20;;;;;;;6.89;75.18;95354.75;5033577;28;20053;-75
2021/11/04 07:20:56;;;;;;;2.88;2.67;;;;;;;6.92;74.92;95347.38;5033636;28;20045;-75
2021/11/04 07:23:34;;;;;;;3.30;2.75;;;;;;;6.95;75.33;95348.78;5013826;28;20046;-75
2021/11/04 07:26:05;;;;;;;3.45;3.15;;;;;;;6.95;74.86;95354.81;5013731;28;20411;-75
2021/11/04 07:28:38;;;;;;;2.30;2.10;;;;;;;6.94;73.55;95360.97;5013406;28;20050;-75
2021/11/04 07:31:09;;;;;;;3.42;2.53;;;;;;;6.90;74.02;95357.13;5013378;28;20046;-75
2021/11/04 07:33:42;;;;;;;2.53;2.33;;;;;;;6.89;74.64;95360.75;5013562;28;20400;-75
2021/11/04 07:36:10;;;;;;;4.60;2.17;;;;;;;6.91;74.44;95366.53;5013204;28;20054;-75
2021/11/04 07:38:39;;;;;;;2.95;2.40;;;;;;;6.92;74.16;95369.91;5013390;28;20057;-77
2021/11/04 07:41:07;;;;;;;1.95;1.83;;;;;;;6.88;74.31;95373.88;5012946;28;20499;-75
2021/11/04 07:43:36;;;;;;;1.80;1.70;;;;;;;6.85;74.25;95375.06;5013879;28;20427;-75
2021/11/04 07:46:04;;;;;;;2.20;2.03;;;;;;;6.84;73.82;95378.63;5013561;28;20057;-75
2021/11/04 07:48:31;;;;;;;2.88;2.10;;;;;;;6.80;73.96;95374.84;5013130;28;20053;-75
2021/11/04 07:50:59;;;;;;;2.25;2.00;;;;;;;6.77;73.97;95381.16;5013206;28;20057;-75
2021/11/04 07:53:27;;;;;;;2.28;2.08;;;;;;;6.77;74.47;95385.56;5013482;28;20428;-75
2021/11/04 07:55:55;;;;;;;2.85;2.20;;;;;;;6.76;74.85;95383.97;5013579;28;20467;-75
2021/11/04 07:58:22;;;;;;;1.88;1.70;;;;;;;6.73;74.55;95392.91;5013302;28;20053;-75
2021/11/04 08:00:51;;;;;;;3.33;1.90;;;;;;;6.72;73.35;95393.09;5013175;28;20061;-75
2021/11/04 08:03:19;;;;;;;1.40;1.30;;;;;;;6.72;73.87;95395.69;5012934;28;20057;-75
2021/11/04 08:05:49;;;;;;;2.35;1.80;;;;;;;6.74;74.42;95402.28;5013570;28;20049;-75
2021/11/04 08:08:16;;;;;;;1.60;1.48;;;;;;;6.77;74.59;95401.09;5016532;28;20061;-75
2021/11/04 08:10:44;;;;;;;1.98;1.70;;;;;;;6.80;74.57;95395.56;5016497;28;20073;-75
2021/11/04 08:13:13;;;;;;;4.93;1.95;;;;;;;6.82;74.80;95396.16;5016335;28;20046;-75
2021/11/04 08:15:41;;;;;;;1.85;1.75;;;;;;;6.84;74.72;95394.19;5016002;28;20057;-75
2021/11/04 08:18:11;;;;;;;1.75;1.60;;;;;;;6.86;74.36;95401.78;5015698;28;20077;-75
2021/11/04 08:20:39;;;;;;;2.75;1.30;;;;;;;6.87;74.48;95404.19;5015253;28;20058;-75
2021/11/04 08:23:08;;;;;;;2.08;1.77;;;;;;;6.87;74.41;95398.22;5015915;28;20050;-76
2021/11/04 08:25:36;;;;;;;1.65;1.55;;;;;;;6.88;74.25;95398.00;5023872;28;20054;-75
2021/11/04 08:28:04;;;;;;;1.60;1.50;;;;;;;6.90;74.60;95405.59;5015006;28;20054;-75
2021/11/04 08:30:32;;;;;;;1.60;1.50;;;;;;;6.89;74.28;95410.00;5014957;28;20108;-75
2021/11/04 08:33:00;;;;;;;3.55;1.83;;;;;;;6.89;73.99;95415.16;5014727;28;20535;-75
2021/11/04 08:35:29;;;;;;;2.95;2.00;;;;;;;6.89;74.49;95407.41;5014782;28;20520;-75
2021/11/04 08:37:57;;;;;;;2.45;2.25;;;;;;;6.92;74.23;95416.59;5014829;28;20058;-75
2021/11/04 08:40:24;;;;;;;1.67;1.58;;;;;;;6.93;74.33;95423.34;5014606;28;20057;-75
2021/11/04 08:42:52;;;;;;;1.63;1.52;;;;;;;6.94;74.51;95414.59;5014773;28;20057;-75
2021/11/04 08:45:20;;;;;;;2.10;1.90;;;;;;;6.95;74.05;95422.22;5014805;28;20100;-75
2021/11/04 08:47:47;;;;;;;1.90;1.80;;;;;;;6.96;73.80;95418.59;5014640;28;20054;-75
2021/11/04 08:50:15;;;;;;;1.50;1.40;;;;;;;7.00;73.87;95421.63;5014263;28;20053;-75
2021/11/04 08:52:46;;;;;;;4.68;2.10;;;;;;;7.00;74.08;95425.03;5014853;28;20069;-75
2021/11/04 08:55:14;;;;;;;1.55;1.45;;;;;;;7.02;73.82;95422.25;5014665;28;20053;-75
2021/11/04 08:57:41;;;;;;;1.15;1.13;;;;;;;7.02;73.32;95432.63;5014757;28;20052;-75
2021/11/04 09:00:11;;;;;;;1.20;1.15;;;;;;;7.00;73.42;95430.22;5014384;28;20050;-75
2021/11/04 09:02:38;;;;;;;1.67;1.58;;;;;;;7.00;73.65;95434.59;5014319;28;20538;-75
2021/11/04 09:05:08;;;;;;;1.45;1.25;;;;;;;7.02;73.66;95437.81;5014388;28;20062;-75
2021/11/04 09:07:39;;;;;;;1.40;1.30;;;;;;;7.03;73.44;95434.22;5014195;28;20053;-75
2021/11/04 09:10:09;;;;;;;2.00;1.60;;;;;;;7.05;74.01;95447.78;5014236;28;20050;-75
2021/11/04 09:12:38;;;;;;;1.58;1.48;;;;;;;7.04;73.40;95440.19;5014079;28;20050;-75
2021/11/04 09:15:08;;;;;;;1.73;1.63;;;;;;;7.05;73.75;95444.41;5014358;28;20061;-75
2021/11/04 09:17:35;;;;;;;1.33;1.23;;;;;;;7.06;73.99;95449.38;5013961;28;20053;-75
2021/11/04 09:20:04;;;;;;;1.17;1.10;;;;;;;7.08;73.79;95451.81;5013612;28;20447;-75
2021/11/04 09:22:33;;;;;;;1.30;1.20;;;;;;;7.10;73.92;95457.59;5013806;28;20523;-75
2021/11/04 09:25:01;;;;;;;2.20;1.40;;;;;;;7.10;73.68;95458.41;5035584;28;20064;-76
2021/11/04 09:27:30;;;;;;;1.75;1.42;;;;;;;7.09;73.73;95456.00;5033932;28;20053;-75
2021/11/04 09:30:00;;;;;;;1.00;1.00;;;;;;;7.09;73.61;95471.56;5016194;28;20054;-75
2021/11/04 09:32:27;;;;;;;2.03;1.60;;;;;;;7.10;73.88;95470.56;5014120;28;20046;-76
2021/11/04 09:34:57;;;;;;;2.95;2.20;;;;;;;7.09;74.05;95472.38;5022349;28;20285;-75
2021/11/04 09:37:24;;;;;;;1.55;1.45;;;;;;;7.10;74.27;95479.13;5033889;28;20050;-76
2021/11/04 09:39:52;;;;;;;1.30;1.20;;;;;;;7.11;74.25;95492.94;5018196;28;20054;-75
2021/11/04 09:42:20;;;;;;;2.13;1.67;;;;;;;7.12;74.30;95499.72;5018690;28;20062;-75
2021/11/04 09:44:50;;;;;;;1.90;1.80;;;;;;;7.11;74.09;95503.31;5020536;28;20065;-75
2021/11/04 09:47:19;;;;;;;1.40;1.30;;;;;;;7.09;73.35;95513.06;5034871;28;20037;-76
2021/11/04 09:49:47;;;;;;;1.05;1.05;;;;;;;7.08;73.22;95508.84;5033773;28;20053;-75
2021/11/04 09:52:14;;;;;;;1.95;1.60;;;;;;;7.08;73.73;95514.03;5019549;28;20049;-75
2021/11/04 09:54:42;;;;;;;2.75;1.60;;;;;;;7.06;73.61;95508.22;5014221;28;20053;-76
2021/11/04 09:57:10;;;;;;;2.00;1.85;;;;;;;7.07;74.33;95523.59;5013736;28;20050;-76
2021/11/04 09:59:37;;;;;;;1.63;1.52;;;;;;;7.09;74.26;95526.03;5013703;28;20419;-76
2021/11/04 10:02:15;;;;;;;1.55;1.38;;;;;;;7.11;75.17;95524.06;5013663;28;20050;-76
2021/11/04 10:04:44;;;;;;;1.52;1.42;;;;;;;7.13;74.72;95528.06;5013707;28;20073;-76
2021/11/04 10:07:12;;;;;;;1.20;1.10;;;;;;;7.14;74.86;95523.66;5014077;28;20045;-76
2021/11/04 10:09:40;;;;;;;1.00;0.90;;;;;;;7.15;74.80;95526.09;5013482;28;20049;-76
2021/11/04 10:12:12;;;;;;;0.77;0.77;;;;;;;7.16;74.61;95527.69;5018266;28;20431;-76
2021/11/04 10:14:40;;;;;;;1.20;0.60;;;;;;;7.18;73.78;95522.31;5019706;28;20060;-76
2021/11/04 10:17:28;;;;;;;0.75;0.75;;;;;;;7.21;74.99;95537.50;5017304;28;20050;-76
2021/11/04 10:19:56;;;;;;;0.60;0.40;;;;;;;7.24;74.54;95539.72;5013304;28;20061;-76
2021/11/04 10:22:25;;;;;;;0.40;0.40;;;;;;;7.23;74.09;95538.91;5013523;28;20060;-76
2021/11/04 10:24:53;;;;;;;0.93;0.40;;;;;;;7.26;73.57;95549.91;5013072;28;20046;-76
2021/11/04 10:27:32;;;;;;;0.55;0.50;;;;;;;7.24;74.35;95555.28;5013303;28;20423;-76
2021/11/04 10:30:02;;;;;;;0.52;0.52;;;;;;;7.25;73.37;95558.69;5012403;28;20077;-76
2021/11/04 10:32:35;;;;;;;0.60;0.52;;;;;;;7.24;73.95;95557.88;5013248;28;20046;-76
2021/11/04 10:35:08;;;;;;;3.53;1.00;;;;;;;7.25;74.10;95566.47;5013700;28;20057;-76
2021/11/04 10:37:43;;;;;;;0.47;0.43;;;;;;;7.28;74.13;95563.47;5013666;28;20054;-76
2021/11/04 10:40:17;;;;;;;0.22;0.22;;;;;;;7.31;74.17;95570.91;5013222;28;20060;-76
2021/11/04 10:42:53;;;;;;;0.70;0.50;;;;;;;7.32;74.07;95581.06;5015446;28;20065;-76
2021/11/04 10:45:23;;;;;;;0.90;0.40;;;;;;;7.33;74.08;95580.09;5022830;28;20057;-75
2021/11/04 10:48:20;;;;;;;0.40;0.40;;;;;;;7.36;73.33;95600.47;5028619;28;20071;-76
2021/11/04 10:50:49;;;;;;;0.68;0.60;;;;;;;7.33;72.69;95589.69;5032419;28;20066;-76
2021/11/04 10:53:20;;;;;;;0.50;0.45;;;;;;;7.29;72.86;95578.88;5019079;28;20053;-76
2021/11/04 10:55:50;;;;;;;1.23;0.60;;;;;;;7.29;73.58;95589.25;5015518;28;20064;-76
2021/11/04 10:58:32;;;;;;;0.98;0.50;;;;;;;7.30;73.01;95601.22;5014890;28;20054;-76
2021/11/04 11:01:01;;;;;;;2.92;0.52;;;;;;;7.26;73.11;95600.00;5017482;28;20435;-76
2021/11/04 11:03:33;;;;;;;2.13;0.70;;;;;;;7.24;73.63;95604.56;5016871;28;20081;-76
2021/11/04 11:06:07;;;;;;;0.45;0.45;;;;;;;7.21;73.94;95603.16;5015920;28;20291;-76
2021/11/04 11:08:36;;;;;;;0.55;0.25;;;;;;;7.21;73.77;95604.91;5016325;28;20046;-76
2021/11/04 11:11:03;;;;;;;0.70;0.40;;;;;;;7.19;73.65;95612.91;5016544;28;20054;-76
2021/11/04 11:13:31;;;;;;;0.30;0.30;;;;;;;7.19;73.45;95604.31;5015931;28;20061;-76
2021/11/04 11:16:00;;;;;;;0.38;0.30;;;;;;;7.18;73.87;95615.69;5016120;28;20058;-76
2021/11/04 11:18:30;;;;;;;0.30;0.30;;;;;;;7.19;74.06;95614.69;5015409;28;20060;-76
2021/11/04 11:20:59;;;;;;;0.28;0.22;;;;;;;7.19;73.70;95619.88;5015954;28;20062;-76
2021/11/04 11:23:29;;;;;;;0.40;0.40;;;;;;;7.19;73.78;95620.69;5016155;28;20450;-76
2021/11/04 11:25:58;;;;;;;0.70;0.60;;;;;;;7.19;73.93;95619.88;5015598;28;20061;-76
2021/11/04 11:28:30;;;;;;;0.38;0.38;;;;;;;7.21;74.26;95623.06;5012337;28;20409;-76
2021/11/04 11:31:21;;;;;;;0.65;0.55;;;;;;;7.23;74.37;95623.69;5012643;28;20423;-76
2021/11/04 11:34:11;;;;;;;0.43;0.22;;;;;;;7.20;73.35;95632.66;5012621;28;20054;-76
2021/11/04 11:36:40;;;;;;;0.77;0.47;;;;;;;7.20;74.08;95635.25;5012687;28;20081;-76
2021/11/04 11:39:25;;;;;;;;;;;;;;;7.23;74.11;95636.66;5012658;28;20534;-76
2021/11/04 11:42:14;;;;;;;1.38;0.70;;;;;;;7.24;74.56;95633.09;5014199;28;20394;-76
2021/11/04 11:44:54;;;;;;;0.47;0.47;;;;;;;7.21;73.09;95631.69;5017057;28;20053;-76
2021/11/04 11:47:23;;;;;;;0.73;0.57;;;;;;;7.19;73.77;95640.63;5016022;28;20049;-76
2021/11/04 11:50:17;;;;;;;0.70;0.60;;;;;;;7.16;73.64;95641.78;5016242;28;20351;-76
2021/11/04 11:52:47;;;;;;;0.80;0.52;;;;;;;7.11;74.47;95648.53;5016071;28;20057;-76
2021/11/04 11:55:16;;;;;;;1.50;0.65;;;;;;;7.13;74.47;95652.53;5016423;28;20061;-76